Time;durP1;ratioP1;P1;durP2;ratioP2;P2;SDS_P1;SDS_P2;PMS_P1;PMS_P2;Temp;Humidity;BMP_temperature;BMP_pressure;BME280_temperature;BME280_humidity;BME280_pressure;Samples;Min_cycle;Max_cycle;Signal;HPM_P1;HPM_P2
2024/03/09 00:00:38;;;;;;;21.45;15.07;;;;;;;5.71;62.07;99304.72;2497729;28;20072;-78
2024/03/09 00:01:52;;;;;;;19.05;14.45;;;;;;;5.71;61.92;99304.72;2509424;28;20042;-79
2024/03/09 00:03:08;;;;;;;18.13;14.15;;;;;;;5.72;61.99;99303.84;2505416;28;20047;-77
2024/03/09 00:04:22;;;;;;;25.02;15.32;;;;;;;5.73;62.21;99314.19;2505504;28;20054;-78
2024/03/09 00:05:39;;;;;;;19.70;15.93;;;;;;;5.73;62.22;99318.50;2504987;28;20046;-77
2024/03/09 00:06:53;;;;;;;22.70;15.25;;;;;;;5.76;62.21;99313.31;2503349;28;20098;-79
2024/03/09 00:08:08;;;;;;;22.73;15.45;;;;;;;5.75;62.31;99319.34;2499100;28;20051;-79
2024/03/09 00:09:23;;;;;;;21.42;16.23;;;;;;;5.74;62.73;99315.03;2495060;28;20058;-77
2024/03/09 00:10:36;;;;;;;22.05;15.15;;;;;;;5.73;62.61;99319.38;2496181;28;20054;-79
2024/03/09 00:11:51;;;;;;;22.40;15.35;;;;;;;5.75;62.82;99321.94;2500699;28;20478;-79
2024/03/09 00:13:04;;;;;;;23.77;16.35;;;;;;;5.75;63.06;99311.56;2495642;29;20485;-80
2024/03/09 00:14:18;;;;;;;20.88;15.98;;;;;;;5.74;63.04;99309.88;2501417;28;20047;-79
2024/03/09 00:15:33;;;;;;;19.75;14.75;;;;;;;5.73;62.74;99309.03;2496927;28;20047;-78
2024/03/09 00:16:48;;;;;;;17.85;14.23;;;;;;;5.73;63.08;99309.03;2501318;28;20059;-78
2024/03/09 00:18:02;;;;;;;19.63;15.55;;;;;;;5.74;63.14;99308.13;2494851;28;20071;-79
2024/03/09 00:19:20;;;;;;;19.75;15.63;;;;;;;5.75;63.09;99302.06;2494630;29;20572;-78
2024/03/09 00:20:34;;;;;;;21.25;15.30;;;;;;;5.73;62.74;99301.25;2496164;28;20051;-78
2024/03/09 00:21:49;;;;;;;25.10;16.00;;;;;;;5.72;62.73;99298.66;2501109;28;20051;-78
2024/03/09 00:23:04;;;;;;;20.70;14.85;;;;;;;5.72;62.70;99307.28;2500384;28;20047;-79
2024/03/09 00:24:19;;;;;;;19.55;14.15;;;;;;;5.71;62.75;99309.91;2498275;28;20616;-79
2024/03/09 00:25:32;;;;;;;20.55;14.57;;;;;;;5.70;63.02;99309.03;2502943;28;20054;-78
2024/03/09 00:26:47;;;;;;;19.35;15.27;;;;;;;5.71;62.98;99300.41;2494741;28;20497;-78
2024/03/09 00:28:00;;;;;;;23.00;15.55;;;;;;;5.70;62.91;99309.03;2499765;28;20791;-78
2024/03/09 00:29:15;;;;;;;18.65;14.77;;;;;;;5.68;63.34;99306.47;2498019;28;20051;-79
2024/03/09 00:30:29;;;;;;;19.95;13.13;;;;;;;5.67;63.62;99302.16;2502655;28;20055;-79
2024/03/09 00:31:44;;;;;;;20.90;13.85;;;;;;;5.64;63.85;99297.00;2497017;28;20493;-79
2024/03/09 00:32:59;;;;;;;19.45;16.20;;;;;;;5.63;63.74;99304.81;2500888;28;20054;-79
2024/03/09 00:34:13;;;;;;;20.38;15.50;;;;;;;5.61;63.64;99304.81;2500198;28;20043;-79
2024/03/09 00:35:29;;;;;;;19.75;13.63;;;;;;;5.62;64.03;99311.69;2497290;28;20511;-77
2024/03/09 00:36:45;;;;;;;21.08;15.50;;;;;;;5.63;63.93;99309.97;2487258;28;20044;-78
2024/03/09 00:37:59;;;;;;;19.88;15.43;;;;;;;5.63;64.22;99308.25;2498908;28;20058;-79
2024/03/09 00:39:14;;;;;;;18.58;14.68;;;;;;;5.62;64.05;99303.94;2499184;28;20106;-78
2024/03/09 00:40:28;;;;;;;23.73;14.10;;;;;;;5.61;64.19;99303.97;2494616;29;20051;-78
2024/03/09 00:41:43;;;;;;;19.90;14.38;;;;;;;5.60;64.29;99305.69;2487308;28;20040;-78
2024/03/09 00:42:57;;;;;;;21.00;15.10;;;;;;;5.56;64.41;99304.00;2498497;28;20488;-78
2024/03/09 00:44:12;;;;;;;22.92;13.52;;;;;;;5.51;64.47;99310.94;2499335;28;20039;-78
2024/03/09 00:45:25;;;;;;;16.75;13.40;;;;;;;5.48;64.34;99295.47;2502519;28;20412;-78
2024/03/09 00:46:40;;;;;;;16.55;13.40;;;;;;;5.45;64.44;99306.69;2495307;28;20043;-78
2024/03/09 00:47:53;;;;;;;16.67;12.98;;;;;;;5.43;64.58;99299.81;2494834;28;20546;-79
2024/03/09 00:49:09;;;;;;;21.42;13.88;;;;;;;5.41;64.86;99302.41;2500160;28;20053;-79
2024/03/09 00:50:24;;;;;;;17.05;13.82;;;;;;;5.41;64.83;99301.56;2497071;28;20043;-78
2024/03/09 00:51:39;;;;;;;20.25;13.85;;;;;;;5.39;64.91;99296.38;2504035;28;20051;-77
2024/03/09 00:52:53;;;;;;;20.27;15.13;;;;;;;5.39;64.79;99285.19;2498735;28;20073;-80
2024/03/09 00:54:07;;;;;;;18.92;14.60;;;;;;;5.39;64.96;99285.19;2500261;28;20054;-80
2024/03/09 00:55:22;;;;;;;17.27;13.50;;;;;;;5.38;65.19;99286.91;2495661;29;20047;-79
2024/03/09 00:56:36;;;;;;;22.80;15.27;;;;;;;5.38;65.44;99288.66;2496504;28;20045;-80
2024/03/09 00:57:50;;;;;;;20.08;14.15;;;;;;;5.38;65.18;99291.25;2501550;28;20055;-81
2024/03/09 00:59:04;;;;;;;21.95;15.68;;;;;;;5.38;65.11;99284.34;2500205;28;20046;-81
2024/03/09 01:00:19;;;;;;;21.85;12.60;;;;;;;5.40;64.84;99279.16;2498692;28;20047;-80
2024/03/09 01:01:33;;;;;;;21.67;16.95;;;;;;;5.39;64.76;99280.84;2502746;28;20472;-81
2024/03/09 01:02:48;;;;;;;22.77;15.57;;;;;;;5.39;64.78;99273.09;2497723;28;20047;-81
2024/03/09 01:04:06;;;;;;;15.88;12.90;;;;;;;5.37;64.92;99268.81;2500269;28;20106;-80
2024/03/09 01:05:22;;;;;;;17.15;13.52;;;;;;;5.36;65.19;99278.31;2501562;28;20051;-81
2024/03/09 01:06:37;;;;;;;17.05;13.35;;;;;;;5.34;65.38;99269.69;2495564;28;20155;-81
2024/03/09 01:07:53;;;;;;;15.88;13.30;;;;;;;5.33;65.49;99267.16;2497945;28;20645;-81
2024/03/09 01:09:07;;;;;;;19.58;12.20;;;;;;;5.33;65.64;99270.59;2499891;28;20043;-80
2024/03/09 01:10:21;;;;;;;17.50;13.80;;;;;;;5.32;65.75;99265.41;2492207;28;20067;-80
2024/03/09 01:11:35;;;;;;;22.80;13.63;;;;;;;5.31;65.97;99261.13;2494100;29;20488;-81
2024/03/09 01:12:49;;;;;;;18.25;13.15;;;;;;;5.31;65.86;99255.94;2497548;28;20094;-81
2024/03/09 01:14:03;;;;;;;20.05;15.20;;;;;;;5.30;65.90;99256.84;2499676;28;20130;-80
2024/03/09 01:15:17;;;;;;;17.75;13.77;;;;;;;5.30;65.96;99249.06;2501467;28;20062;-79
2024/03/09 01:16:32;;;;;;;16.23;14.32;;;;;;;5.30;65.81;99251.66;2496630;28;20130;-80
2024/03/09 01:17:46;;;;;;;18.38;14.38;;;;;;;5.30;66.01;99254.25;2502205;28;20057;-80
2024/03/09 01:19:00;;;;;;;25.50;15.95;;;;;;;5.31;66.30;99259.38;2499072;28;20057;-80
2024/03/09 01:20:14;;;;;;;15.45;13.00;;;;;;;5.31;66.40;99253.38;2499112;28;20047;-80
2024/03/09 01:21:29;;;;;;;24.45;15.57;;;;;;;5.30;66.46;99243.91;2494650;28;20535;-80
2024/03/09 01:22:44;;;;;;;27.70;17.08;;;;;;;5.30;66.48;99249.91;2496980;28;20110;-81
2024/03/09 01:24:00;;;;;;;21.23;16.42;;;;;;;5.31;66.62;99246.44;2501020;28;20160;-81
2024/03/09 01:25:14;;;;;;;17.42;13.10;;;;;;;5.33;66.56;99252.47;2500417;28;20050;-81
2024/03/09 01:26:29;;;;;;;21.63;15.85;;;;;;;5.35;66.78;99255.06;2497206;28;20460;-81
2024/03/09 01:27:42;;;;;;;27.05;16.13;;;;;;;5.36;66.93;99257.59;2503261;28;20054;-81
2024/03/09 01:28:57;;;;;;;23.77;17.55;;;;;;;5.36;67.05;99265.38;2498904;28;20051;-80
2024/03/09 01:30:10;;;;;;;42.65;29.70;;;;;;;5.37;67.00;99264.53;2499291;28;20401;-78
2024/03/09 01:31:28;;;;;;;31.23;22.30;;;;;;;5.39;67.07;99262.75;2494938;28;20123;-80
2024/03/09 01:32:43;;;;;;;26.77;17.90;;;;;;;5.41;67.23;99265.34;2496724;28;20051;-80
2024/03/09 01:33:58;;;;;;;26.95;18.45;;;;;;;5.42;67.28;99262.75;2501103;28;20446;-80
2024/03/09 01:35:12;;;;;;;20.90;15.77;;;;;;;5.42;67.23;99257.56;2500472;28;20054;-80
2024/03/09 01:36:27;;;;;;;21.38;15.82;;;;;;;5.44;67.20;99252.38;2498166;28;20365;-80
2024/03/09 01:37:41;;;;;;;17.20;14.32;;;;;;;5.44;67.44;99250.63;2502740;28;20046;-79
2024/03/09 01:38:55;;;;;;;17.17;14.10;;;;;;;5.45;67.28;99251.50;2496699;29;20050;-78
2024/03/09 01:40:11;;;;;;;17.23;13.02;;;;;;;5.45;67.41;99251.50;2502962;28;20050;-80
2024/03/09 01:41:26;;;;;;;18.40;14.43;;;;;;;5.44;67.43;99254.94;2498413;28;20082;-80
2024/03/09 01:42:39;;;;;;;18.88;14.82;;;;;;;5.43;67.45;99253.25;2496008;28;20055;-80
2024/03/09 01:43:55;;;;;;;16.33;13.27;;;;;;;5.43;67.61;99250.66;2496573;28;20106;-81
2024/03/09 01:45:09;;;;;;;20.02;14.35;;;;;;;5.43;67.57;99253.25;2495676;28;20598;-80
2024/03/09 01:46:25;;;;;;;20.55;13.68;;;;;;;5.43;67.71;99250.66;2495340;28;20050;-80
2024/03/09 01:47:39;;;;;;;26.75;13.93;;;;;;;5.43;67.67;99253.25;2496378;28;20051;-80
2024/03/09 01:48:54;;;;;;;16.77;13.38;;;;;;;5.42;67.93;99238.56;2502976;28;20066;-80
2024/03/09 01:50:10;;;;;;;17.30;14.02;;;;;;;5.42;68.08;99242.03;2495116;28;20047;-80
2024/03/09 01:51:24;;;;;;;20.23;14.18;;;;;;;5.41;68.11;99240.31;2495779;28;20043;-80
2024/03/09 01:52:39;;;;;;;18.52;13.98;;;;;;;5.41;68.17;99231.69;2496432;28;20055;-80
2024/03/09 01:53:54;;;;;;;20.80;16.48;;;;;;;5.41;68.08;99239.47;2502244;28;20055;-80
2024/03/09 01:55:10;;;;;;;22.85;14.27;;;;;;;5.41;68.30;99237.72;2500584;28;20504;-80
2024/03/09 01:56:27;;;;;;;20.75;15.27;;;;;;;5.41;68.31;99237.72;2499250;28;20043;-80
2024/03/09 01:57:41;;;;;;;20.00;14.32;;;;;;;5.42;68.37;99236.00;2496488;28;20139;-80
2024/03/09 01:58:56;;;;;;;23.55;16.65;;;;;;;5.41;68.28;99229.13;2502468;28;20044;-80
2024/03/09 02:00:14;;;;;;;24.42;18.42;;;;;;;5.41;68.41;99234.28;2495325;29;20075;-80
2024/03/09 02:01:28;;;;;;;35.08;21.40;;;;;;;5.40;68.48;99232.59;2501538;28;20043;-80
2024/03/09 02:02:43;;;;;;;29.02;19.75;;;;;;;5.40;68.46;99230.00;2495625;28;20050;-81
2024/03/09 02:03:56;;;;;;;22.02;16.17;;;;;;;5.39;68.79;99225.69;2495091;29;20053;-80
2024/03/09 02:05:11;;;;;;;27.55;18.90;;;;;;;5.39;68.74;99229.13;2500367;28;20049;-80
2024/03/09 02:06:27;;;;;;;30.15;17.95;;;;;;;5.37;68.50;99220.53;2497356;28;20067;-81
2024/03/09 02:07:44;;;;;;;22.63;17.63;;;;;;;5.37;68.47;99227.41;2503131;28;20504;-80
2024/03/09 02:08:59;;;;;;;24.10;17.80;;;;;;;5.35;68.48;99211.94;2496141;28;20047;-81
2024/03/09 02:10:13;;;;;;;21.00;16.23;;;;;;;5.37;68.52;99219.66;2495059;28;20155;-80
2024/03/09 02:11:29;;;;;;;21.77;16.75;;;;;;;5.37;68.50;99222.25;2495283;28;20047;-80
2024/03/09 02:12:45;;;;;;;25.95;17.02;;;;;;;5.36;68.53;99212.78;2503074;28;20523;-81
2024/03/09 02:13:58;;;;;;;19.98;15.38;;;;;;;5.36;68.33;99218.81;2498910;28;20046;-80
2024/03/09 02:15:16;;;;;;;21.45;15.63;;;;;;;5.36;68.34;99223.13;2501754;28;20135;-80
2024/03/09 02:16:29;;;;;;;20.63;15.88;;;;;;;5.33;68.38;99210.22;2503696;28;20054;-80
2024/03/09 02:17:46;;;;;;;23.67;15.98;;;;;;;5.30;68.45;99218.88;2496876;28;20150;-79
2024/03/09 02:19:00;;;;;;;19.85;14.55;;;;;;;5.29;68.59;99205.94;2500808;28;20054;-80
2024/03/09 02:20:16;;;;;;;19.10;14.35;;;;;;;5.28;68.57;99206.84;2501418;28;20050;-80
2024/03/09 02:21:31;;;;;;;21.25;15.38;;;;;;;5.27;68.81;99210.28;2503636;28;20050;-80
2024/03/09 02:22:46;;;;;;;18.45;14.05;;;;;;;5.23;68.93;99197.38;2496795;28;20055;-80
2024/03/09 02:24:02;;;;;;;20.70;13.23;;;;;;;5.22;68.67;99203.44;2496751;28;20424;-81
2024/03/09 02:25:19;;;;;;;21.00;14.20;;;;;;;5.18;68.91;99196.56;2502102;28;20057;-81
2024/03/09 02:26:36;;;;;;;18.80;14.07;;;;;;;5.17;69.05;99199.19;2498012;28;20130;-80
2024/03/09 02:27:51;;;;;;;18.13;12.52;;;;;;;5.15;68.98;99195.75;2491286;28;20535;-81
2024/03/09 02:29:05;;;;;;;18.75;12.70;;;;;;;5.13;69.39;99189.72;2502520;28;20047;-80
2024/03/09 02:30:19;;;;;;;18.85;12.13;;;;;;;5.10;69.36;99182.88;2502784;28;20042;-81
2024/03/09 02:31:33;;;;;;;15.25;12.45;;;;;;;5.09;69.44;99185.47;2498307;28;20133;-79
2024/03/09 02:32:50;;;;;;;16.45;13.25;;;;;;;5.07;69.49;99182.91;2488938;28;20425;-81
2024/03/09 02:34:04;;;;;;;16.15;12.50;;;;;;;5.06;69.65;99178.63;2500329;28;20046;-80
2024/03/09 02:35:18;;;;;;;21.17;14.20;;;;;;;5.03;69.70;99181.19;2500610;28;20043;-78
2024/03/09 02:36:32;;;;;;;20.40;15.18;;;;;;;5.02;69.63;99179.50;2496150;28;20047;-80
2024/03/09 02:37:47;;;;;;;21.10;15.75;;;;;;;5.02;69.56;99171.75;2496004;28;20560;-81
2024/03/09 02:39:02;;;;;;;19.30;14.85;;;;;;;5.03;69.56;99173.44;2500842;28;20051;-80
2024/03/09 02:40:18;;;;;;;18.67;14.32;;;;;;;5.03;69.74;99173.44;2500573;28;20055;-80
2024/03/09 02:41:32;;;;;;;20.73;16.52;;;;;;;5.05;69.45;99174.28;2496934;28;20051;-80
2024/03/09 02:44:15;;;;;;;17.45;14.63;;;;;;;5.10;69.03;99182.00;2497378;28;20098;-80
2024/03/09 02:45:28;;;;;;;23.88;17.45;;;;;;;5.10;68.90;99172.53;2494346;28;20512;-80
2024/03/09 02:46:44;;;;;;;22.52;15.52;;;;;;;5.12;68.81;99175.97;2502861;28;20043;-79
2024/03/09 02:47:58;;;;;;;18.65;14.45;;;;;;;5.14;68.72;99174.22;2497783;28;20042;-80
2024/03/09 02:49:12;;;;;;;18.27;13.73;;;;;;;5.16;68.64;99174.19;2499882;28;20552;-80
2024/03/09 02:50:26;;;;;;;18.95;13.65;;;;;;;5.19;68.76;99174.19;2496442;28;20068;-79
2024/03/09 02:51:41;;;;;;;20.40;14.05;;;;;;;5.20;68.62;99176.72;2508452;28;20046;-80
2024/03/09 02:52:55;;;;;;;23.15;14.82;;;;;;;5.21;68.44;99178.47;2499410;29;20054;-80
2024/03/09 02:54:09;;;;;;;20.15;15.90;;;;;;;5.22;68.47;99172.41;2500643;28;20074;-79
2024/03/09 02:55:26;;;;;;;20.15;14.70;;;;;;;5.22;68.08;99167.22;2501487;29;20050;-80
2024/03/09 02:56:41;;;;;;;24.75;16.85;;;;;;;5.22;67.89;99159.47;2495664;28;20043;-80
2024/03/09 02:57:54;;;;;;;18.95;14.95;;;;;;;5.23;67.93;99166.34;2494561;28;20401;-79
2024/03/09 02:59:09;;;;;;;19.10;16.45;;;;;;;5.24;67.93;99157.72;2495649;29;20057;-80
2024/03/09 03:00:26;;;;;;;20.65;16.40;;;;;;;5.23;67.44;99156.00;2501567;28;20050;-79
2024/03/09 03:01:41;;;;;;;20.58;14.95;;;;;;;5.22;67.40;99156.88;2496040;28;20047;-79
2024/03/09 03:04:27;;;;;;;18.30;14.25;;;;;;;5.23;67.19;99152.56;2495617;29;20432;-79
2024/03/09 03:05:41;;;;;;;20.48;15.30;;;;;;;5.23;67.16;99152.56;2502773;28;20138;-80
2024/03/09 03:06:57;;;;;;;18.25;15.52;;;;;;;5.23;67.05;99148.25;2495567;28;20047;-79
2024/03/09 03:08:11;;;;;;;20.02;15.77;;;;;;;5.23;67.08;99135.31;2499858;28;20046;-79
2024/03/09 03:09:26;;;;;;;21.35;15.68;;;;;;;5.23;66.83;99135.31;2498297;28;20048;-80
2024/03/09 03:10:40;;;;;;;18.88;14.52;;;;;;;5.23;66.79;99127.53;2495043;28;20456;-79
2024/03/09 03:11:55;;;;;;;20.52;15.90;;;;;;;5.23;66.95;99121.53;2497569;28;20142;-80
2024/03/09 03:13:10;;;;;;;19.50;14.43;;;;;;;5.20;66.97;99117.25;2499799;28;20130;-80
2024/03/09 03:14:25;;;;;;;16.77;14.57;;;;;;;5.19;66.95;99109.53;2500868;28;20043;-80
2024/03/09 03:15:38;;;;;;;19.88;14.55;;;;;;;5.17;66.93;99106.94;2496744;28;20058;-79
2024/03/09 03:16:55;;;;;;;16.38;14.30;;;;;;;5.17;67.10;99109.53;2502241;28;22207;-79
2024/03/09 03:18:09;;;;;;;20.75;15.48;;;;;;;5.18;67.22;99110.38;2499260;28;20049;-80
2024/03/09 03:19:24;;;;;;;19.70;14.57;;;;;;;5.18;67.09;99111.22;2498573;28;20142;-79
2024/03/09 03:20:38;;;;;;;19.38;14.10;;;;;;;5.20;67.18;99114.66;2503431;28;20043;-79
2024/03/09 03:21:53;;;;;;;26.33;14.27;;;;;;;5.22;67.23;99119.81;2494570;28;20134;-79
2024/03/09 03:23:06;;;;;;;26.70;16.77;;;;;;;5.25;67.16;99120.63;2495488;28;20058;-79
2024/03/09 03:24:21;;;;;;;19.88;15.40;;;;;;;5.26;67.20;99113.72;2495157;29;20047;-79
2024/03/09 03:25:34;;;;;;;20.17;13.95;;;;;;;5.29;67.45;99115.41;2502381;28;20042;-79
2024/03/09 03:26:50;;;;;;;17.98;14.90;;;;;;;5.31;67.08;99114.53;2494792;28;20501;-80
2024/03/09 03:28:05;;;;;;;17.50;13.00;;;;;;;5.33;66.72;99111.94;2498755;28;20074;-79
2024/03/09 03:29:20;;;;;;;18.38;13.35;;;;;;;5.33;66.88;99101.59;2498753;28;20043;-79
2024/03/09 03:30:33;;;;;;;19.90;14.00;;;;;;;5.33;66.76;99099.84;2494936;28;20058;-78
2024/03/09 03:31:48;;;;;;;20.55;13.35;;;;;;;5.35;66.62;99087.75;2503244;28;20046;-80
2024/03/09 03:33:01;;;;;;;20.38;14.52;;;;;;;5.35;66.34;99079.16;2495419;28;20051;-79
2024/03/09 03:34:16;;;;;;;21.77;15.45;;;;;;;5.33;66.39;99055.88;2499666;28;20133;-79
2024/03/09 03:35:31;;;;;;;21.17;15.38;;;;;;;5.34;66.28;99054.97;2498139;28;20055;-79
2024/03/09 03:36:45;;;;;;;17.50;13.30;;;;;;;5.34;66.07;99046.38;2495837;28;20146;-79
2024/03/09 03:37:59;;;;;;;25.73;15.70;;;;;;;5.35;66.07;99027.41;2501721;28;20055;-79
2024/03/09 03:39:13;;;;;;;20.50;15.30;;;;;;;5.35;65.76;99015.31;2495432;28;20081;-80
2024/03/09 03:40:27;;;;;;;19.90;14.30;;;;;;;5.36;65.67;99009.25;2501745;28;20050;-79
2024/03/09 03:41:41;;;;;;;23.20;15.25;;;;;;;5.37;65.86;99004.94;2496654;28;20122;-79
2024/03/09 03:42:57;;;;;;;22.63;15.02;;;;;;;5.38;65.78;98997.16;2502268;28;20051;-78
2024/03/09 03:44:12;;;;;;;21.63;14.82;;;;;;;5.38;65.43;98992.00;2495685;28;20051;-79
2024/03/09 03:45:26;;;;;;;21.17;15.32;;;;;;;5.40;65.27;98990.25;2494790;28;20047;-79
2024/03/09 03:46:40;;;;;;;19.10;14.25;;;;;;;5.41;65.32;98994.53;2495057;29;20048;-79
2024/03/09 03:47:54;;;;;;;20.15;14.88;;;;;;;5.42;65.20;99003.13;2496929;28;20444;-79
2024/03/09 03:49:10;;;;;;;23.15;15.27;;;;;;;5.43;64.99;99010.91;2501116;28;20138;-79
2024/03/09 03:50:24;;;;;;;19.30;14.82;;;;;;;5.45;64.88;99024.66;2494850;28;20043;-79
2024/03/09 03:51:39;;;;;;;21.90;16.23;;;;;;;5.47;64.94;99034.97;2496018;29;20073;-79
2024/03/09 03:52:53;;;;;;;17.85;14.63;;;;;;;5.50;64.94;99053.06;2489008;28;20060;-79
2024/03/09 03:54:09;;;;;;;23.58;16.40;;;;;;;5.53;65.00;99071.13;2500603;28;20047;-79
2024/03/09 03:55:24;;;;;;;22.45;16.60;;;;;;;5.54;64.80;99074.56;2494868;29;20057;-80
2024/03/09 03:56:39;;;;;;;23.20;16.15;;;;;;;5.55;64.83;99084.91;2502683;28;20050;-80
2024/03/09 03:57:54;;;;;;;23.50;16.92;;;;;;;5.57;64.79;99088.31;2486407;29;20509;-79
2024/03/09 03:59:10;;;;;;;24.30;14.93;;;;;;;5.59;64.91;99089.16;2497003;29;20054;-80
2024/03/09 04:00:24;;;;;;;21.73;13.52;;;;;;;5.59;64.79;99088.31;2501697;28;20047;-79
2024/03/09 04:01:39;;;;;;;21.83;16.10;;;;;;;5.60;64.66;99079.66;2503386;28;20102;-79
2024/03/09 04:02:52;;;;;;;18.38;14.23;;;;;;;5.62;64.71;99089.09;2495030;28;20055;-79
2024/03/09 04:04:07;;;;;;;19.70;15.10;;;;;;;5.62;64.92;99083.94;2501705;28;20429;-78
2024/03/09 04:05:21;;;;;;;22.13;15.15;;;;;;;5.63;64.82;99085.66;2498560;28;20504;-81
2024/03/09 04:06:35;;;;;;;23.92;15.80;;;;;;;5.65;64.78;99089.09;2497210;28;20047;-80
2024/03/09 04:07:48;;;;;;;19.67;13.27;;;;;;;5.66;64.64;99087.34;2504552;28;20054;-80
2024/03/09 04:09:04;;;;;;;17.80;14.18;;;;;;;5.67;64.70;99084.72;2497317;28;20151;-80
2024/03/09 04:10:18;;;;;;;19.25;15.23;;;;;;;5.67;64.57;99079.56;2502296;28;20057;-79
2024/03/09 04:11:33;;;;;;;17.33;13.60;;;;;;;5.68;64.55;99083.88;2499147;28;20051;-80
2024/03/09 04:12:46;;;;;;;23.25;16.20;;;;;;;5.66;64.61;99080.44;2496034;28;20051;-80
2024/03/09 04:14:01;;;;;;;20.80;14.52;;;;;;;5.66;64.51;99079.59;2497609;28;20047;-80
2024/03/09 04:15:16;;;;;;;19.05;14.55;;;;;;;5.64;64.95;99077.00;2501053;28;20051;-80
2024/03/09 04:16:31;;;;;;;18.58;14.52;;;;;;;5.64;64.67;99076.16;2494767;28;20046;-80
2024/03/09 04:17:44;;;;;;;17.23;13.18;;;;;;;5.60;64.66;99070.19;2495532;28;20062;-79
2024/03/09 04:18:59;;;;;;;21.90;14.07;;;;;;;5.59;64.40;99068.47;2502485;28;20050;-79
2024/03/09 04:20:15;;;;;;;15.70;13.25;;;;;;;5.57;64.25;99067.63;2499997;28;20051;-79
2024/03/09 04:21:30;;;;;;;19.80;12.80;;;;;;;5.58;64.32;99065.91;2498158;28;20047;-80
2024/03/09 04:22:45;;;;;;;18.33;13.35;;;;;;;5.57;64.33;99064.19;2503601;28;20501;-78
2024/03/09 04:23:59;;;;;;;16.02;12.88;;;;;;;5.54;64.25;99069.41;2494793;28;20413;-79
2024/03/09 04:25:14;;;;;;;16.30;13.20;;;;;;;5.52;64.00;99059.06;2495437;28;20054;-79
2024/03/09 04:26:30;;;;;;;17.33;13.13;;;;;;;5.49;64.06;99063.44;2494800;28;20099;-80
2024/03/09 04:27:44;;;;;;;19.90;14.07;;;;;;;5.45;63.92;99060.91;2495329;28;20044;-79
2024/03/09 04:28:59;;;;;;;18.10;13.93;;;;;;;5.43;63.98;99057.47;2494932;29;20062;-79
2024/03/09 04:30:12;;;;;;;19.45;13.98;;;;;;;5.42;64.05;99060.94;2495170;28;20133;-80
2024/03/09 04:31:32;;;;;;;17.63;14.48;;;;;;;5.42;63.95;99057.47;2501350;28;20073;-79
2024/03/09 04:32:45;;;;;;;21.00;15.00;;;;;;;5.39;64.19;99057.50;2497584;28;20062;-80
2024/03/09 04:34:01;;;;;;;18.60;13.20;;;;;;;5.38;64.00;99055.81;2501876;28;20053;-79
2024/03/09 04:35:15;;;;;;;17.88;13.63;;;;;;;5.37;64.06;99054.09;2500156;28;20043;-81
2024/03/09 04:36:30;;;;;;;20.80;14.63;;;;;;;5.36;64.17;99057.56;2497770;28;20086;-79
2024/03/09 04:37:44;;;;;;;18.55;14.70;;;;;;;5.34;64.06;99062.75;2503191;28;20051;-80
2024/03/09 04:39:00;;;;;;;17.08;14.00;;;;;;;5.33;64.23;99062.78;2503234;28;20122;-79
2024/03/09 04:40:15;;;;;;;18.52;15.43;;;;;;;5.30;64.05;99055.91;2495250;28;20134;-78
2024/03/09 04:41:31;;;;;;;17.80;12.77;;;;;;;5.31;64.08;99064.53;2495204;28;20047;-80
2024/03/09 04:42:46;;;;;;;18.50;12.68;;;;;;;5.30;64.06;99057.66;2494360;28;20082;-79
2024/03/09 04:44:01;;;;;;;19.25;13.68;;;;;;;5.28;64.02;99051.63;2494851;29;20512;-80
2024/03/09 04:45:18;;;;;;;19.08;14.73;;;;;;;5.27;63.99;99057.66;2494923;28;20058;-80
2024/03/09 04:46:36;;;;;;;18.58;13.25;;;;;;;5.25;64.01;99055.97;2495987;28;20065;-79
2024/03/09 04:47:49;;;;;;;22.95;14.55;;;;;;;5.25;64.06;99058.56;2495224;28;20047;-78
2024/03/09 04:49:03;;;;;;;19.77;13.15;;;;;;;5.25;64.00;99058.56;2495708;28;20099;-80
2024/03/09 04:50:19;;;;;;;16.88;12.77;;;;;;;5.25;64.36;99060.28;2495229;28;20066;-80
2024/03/09 04:51:34;;;;;;;17.83;13.85;;;;;;;5.25;64.33;99061.16;2496087;29;20054;-80
2024/03/09 04:52:48;;;;;;;18.70;13.77;;;;;;;5.26;64.35;99064.56;2495581;28;20055;-80
2024/03/09 04:54:06;;;;;;;19.02;13.75;;;;;;;5.25;64.33;99058.56;2494883;28;20242;-80
2024/03/09 04:55:21;;;;;;;16.55;12.20;;;;;;;5.24;64.28;99064.63;2495427;28;20051;-80
2024/03/09 04:56:36;;;;;;;15.98;11.93;;;;;;;5.22;64.27;99058.59;2495953;28;20048;-80
2024/03/09 04:57:50;;;;;;;17.77;12.98;;;;;;;5.20;64.24;99050.00;2494893;28;20047;-80
2024/03/09 04:59:04;;;;;;;17.05;13.23;;;;;;;5.18;64.21;99067.25;2496156;28;20047;-80
2024/03/09 05:00:18;;;;;;;20.33;13.90;;;;;;;5.15;63.87;99064.72;2494965;29;20051;-80
2024/03/09 05:01:33;;;;;;;18.20;12.57;;;;;;;5.14;64.29;99065.59;2496146;28;20082;-80
2024/03/09 05:02:48;;;;;;;19.50;13.57;;;;;;;5.14;64.50;99073.34;2495343;28;20137;-80
2024/03/09 05:04:02;;;;;;;21.90;14.95;;;;;;;5.14;64.42;99081.13;2495879;29;20113;-80
2024/03/09 05:05:18;;;;;;;21.60;14.13;;;;;;;5.13;64.29;99081.97;2495105;28;20058;-80
2024/03/09 05:06:34;;;;;;;19.52;14.13;;;;;;;5.13;64.38;99091.47;2495795;28;20035;-79
2024/03/09 05:07:49;;;;;;;18.00;13.15;;;;;;;5.13;64.23;99088.88;2495978;28;20539;-78
2024/03/09 05:09:04;;;;;;;17.20;12.70;;;;;;;5.12;64.23;99077.69;2497075;28;20082;-79
2024/03/09 05:10:19;;;;;;;16.98;13.05;;;;;;;5.11;64.05;99083.75;2499253;28;20085;-79
2024/03/09 05:11:33;;;;;;;15.65;13.82;;;;;;;5.10;64.06;99092.34;2498688;28;20058;-79
2024/03/09 05:12:53;;;;;;;18.83;12.65;;;;;;;5.08;64.32;99085.50;2496572;28;20055;-79
2024/03/09 05:14:07;;;;;;;17.05;11.95;;;;;;;5.06;64.27;99082.94;2496041;28;20043;-79
2024/03/09 05:15:22;;;;;;;21.05;14.13;;;;;;;5.06;64.42;99080.34;2496643;29;20051;-79
2024/03/09 05:16:36;;;;;;;17.40;12.75;;;;;;;5.05;64.53;99081.22;2495622;29;20113;-79
2024/03/09 05:17:51;;;;;;;21.17;14.25;;;;;;;5.06;64.32;99082.94;2495615;28;20058;-79
2024/03/09 05:19:07;;;;;;;16.58;12.93;;;;;;;5.05;64.67;99076.03;2495541;29;20055;-79
2024/03/09 05:20:22;;;;;;;17.55;12.90;;;;;;;5.02;64.42;99082.09;2496139;28;20429;-80
2024/03/09 05:21:38;;;;;;;17.27;12.63;;;;;;;5.02;64.57;99079.50;2497406;28;20043;-80
2024/03/09 05:22:52;;;;;;;17.85;12.95;;;;;;;5.02;64.60;99076.09;2501710;28;20145;-78
2024/03/09 05:24:07;;;;;;;16.00;12.15;;;;;;;5.04;64.73;99079.50;2496083;28;20047;-80
2024/03/09 05:25:21;;;;;;;21.00;14.65;;;;;;;5.05;64.64;99085.53;2495058;28;20043;-80
2024/03/09 05:26:36;;;;;;;15.02;12.02;;;;;;;5.04;64.78;99087.28;2494954;29;20047;-80
2024/03/09 05:27:50;;;;;;;17.88;14.63;;;;;;;5.04;64.78;99087.28;2495655;28;20055;-79
2024/03/09 05:29:05;;;;;;;15.10;12.32;;;;;;;5.02;64.73;99076.94;2495048;28;20079;-80
2024/03/09 05:30:20;;;;;;;17.35;13.48;;;;;;;5.02;64.79;99082.09;2494749;28;20074;-80
2024/03/09 05:31:34;;;;;;;18.88;13.95;;;;;;;5.02;64.68;99086.44;2495648;28;20094;-80
2024/03/09 05:32:51;;;;;;;16.00;12.25;;;;;;;5.02;64.75;99081.25;2495738;28;20062;-80
2024/03/09 05:34:07;;;;;;;17.30;14.13;;;;;;;5.01;64.79;99088.16;2494580;28;20461;-79
2024/03/09 05:35:21;;;;;;;18.70;14.60;;;;;;;4.99;64.41;99083.88;2495725;28;20054;-80
2024/03/09 05:36:36;;;;;;;17.67;13.23;;;;;;;4.95;64.43;99082.19;2495077;28;20047;-80
2024/03/09 05:37:49;;;;;;;19.98;14.10;;;;;;;4.94;64.56;99088.25;2494619;28;20216;-80
2024/03/09 05:39:05;;;;;;;18.30;13.73;;;;;;;4.92;64.63;99084.81;2494747;28;20067;-80
2024/03/09 05:40:19;;;;;;;18.20;13.88;;;;;;;4.90;64.65;99089.13;2495373;28;20126;-78
2024/03/09 05:41:36;;;;;;;22.27;15.45;;;;;;;4.88;64.78;99083.13;2494710;28;20581;-80
2024/03/09 05:42:50;;;;;;;22.25;14.98;;;;;;;4.87;65.00;99086.59;2494980;28;20107;-81
2024/03/09 05:44:04;;;;;;;18.65;14.38;;;;;;;4.84;64.88;99084.91;2495246;28;20080;-81
2024/03/09 05:45:20;;;;;;;18.63;12.65;;;;;;;4.81;64.93;99078.03;2494454;28;20047;-80
2024/03/09 05:46:34;;;;;;;19.05;13.77;;;;;;;4.81;65.05;99078.03;2495167;28;20119;-81
2024/03/09 05:47:50;;;;;;;17.27;12.82;;;;;;;4.79;64.87;99076.34;2495206;28;20055;-79
2024/03/09 05:49:06;;;;;;;17.42;12.93;;;;;;;4.76;65.15;99089.28;2495187;28;20051;-80
2024/03/09 05:50:22;;;;;;;20.45;15.70;;;;;;;4.75;65.20;99082.38;2495173;28;20047;-81